Time;durP1;ratioP1;P1;durP2;ratioP2;P2;SDS_P1;SDS_P2;PMS_P1;PMS_P2;Temp;Humidity;BMP_temperature;BMP_pressure;BME280_temperature;BME280_humidity;BME280_pressure;Samples;Min_cycle;Max_cycle;Signal;HPM_P1;HPM_P2
2023/08/07 00:00:24;;;;;;;11.05;2.70;;;15.20;99.90;;;;;;5043908;28;20443;-80
2023/08/07 00:02:50;;;;;;;14.93;3.05;;;15.10;99.90;;;;;;5045105;28;20060;-80
2023/08/07 00:05:19;;;;;;;9.43;2.75;;;15.20;99.90;;;;;;5065432;28;20064;-81
2023/08/07 00:07:44;;;;;;;14.77;4.38;;;15.20;99.90;;;;;;5061027;28;20097;-80
2023/08/07 00:10:10;;;;;;;15.27;3.17;;;15.20;99.90;;;;;;5065196;28;20341;-81
2023/08/07 00:12:36;;;;;;;14.52;3.65;;;15.10;99.90;;;;;;5046968;28;20063;-80
2023/08/07 00:15:03;;;;;;;9.20;3.03;;;15.10;99.90;;;;;;5064642;28;20129;-80
2023/08/07 00:17:29;;;;;;;19.60;3.22;;;15.10;99.90;;;;;;5045603;28;20054;-81
2023/08/07 00:19:54;;;;;;;13.77;3.03;;;15.10;99.90;;;;;;5064520;28;20033;-81
2023/08/07 00:22:20;;;;;;;11.73;2.83;;;15.00;99.90;;;;;;5067245;28;20411;-81
2023/08/07 00:24:46;;;;;;;14.05;2.45;;;15.00;99.90;;;;;;5042959;28;20127;-81
2023/08/07 00:27:12;;;;;;;14.00;2.90;;;15.00;99.90;;;;;;5065045;28;20040;-81
2023/08/07 00:29:38;;;;;;;15.70;2.97;;;15.00;99.90;;;;;;5062891;28;20037;-81
2023/08/07 00:32:05;;;;;;;16.00;3.45;;;14.90;99.90;;;;;;5043607;28;20045;-81
2023/08/07 00:34:30;;;;;;;12.32;2.67;;;14.90;99.90;;;;;;5065519;28;20048;-81
2023/08/07 00:36:56;;;;;;;14.13;3.40;;;14.80;99.90;;;;;;5063466;28;20040;-81
2023/08/07 00:39:22;;;;;;;14.02;2.95;;;14.90;99.90;;;;;;5045620;28;20033;-81
2023/08/07 00:41:48;;;;;;;10.95;3.15;;;14.80;99.90;;;;;;5046747;28;20044;-81
2023/08/07 00:44:13;;;;;;;16.88;2.70;;;14.80;99.90;;;;;;5061245;28;20467;-80
2023/08/07 00:46:40;;;;;;;17.55;3.05;;;14.90;99.90;;;;;;5066094;28;20059;-80
2023/08/07 00:49:08;;;;;;;14.48;2.88;;;14.80;99.90;;;;;;5063948;28;20078;-80
2023/08/07 00:51:35;;;;;;;19.90;3.00;;;14.70;99.90;;;;;;5062281;28;20040;-81
2023/08/07 00:54:03;;;;;;;15.38;3.08;;;14.80;99.90;;;;;;5065871;28;20120;-80
2023/08/07 00:56:30;;;;;;;11.85;3.20;;;14.80;99.90;;;;;;5044219;28;20577;-81
2023/08/07 00:58:56;;;;;;;21.15;3.55;;;14.80;99.90;;;;;;5062685;28;20407;-81
2023/08/07 01:01:21;;;;;;;11.95;2.78;;;14.80;99.90;;;;;;5040792;28;20032;-81
2023/08/07 01:03:47;;;;;;;20.35;3.42;;;14.80;99.90;;;;;;5063483;28;20119;-81
2023/08/07 01:06:13;;;;;;;12.75;2.90;;;14.80;99.90;;;;;;5057838;28;20049;-81
2023/08/07 01:08:38;;;;;;;10.90;2.55;;;14.70;99.90;;;;;;5061445;28;20055;-82
2023/08/07 01:11:42;;;;;;;10.52;3.13;;;14.80;99.90;;;;;;5061678;28;20042;-81
2023/08/07 01:14:14;;;;;;;13.85;2.97;;;14.70;99.90;;;;;;5049910;28;20057;-82
2023/08/07 01:16:49;;;;;;;13.53;3.33;;;14.70;99.90;;;;;;5062359;28;20499;-81
2023/08/07 01:19:24;;;;;;;12.10;3.05;;;14.80;99.90;;;;;;5043892;28;20051;-82
2023/08/07 01:21:50;;;;;;;13.38;3.13;;;14.70;99.90;;;;;;5032692;28;20427;-82
2023/08/07 01:24:16;;;;;;;16.13;3.25;;;14.70;99.90;;;;;;5065877;28;20045;-82
2023/08/07 01:26:46;;;;;;;14.68;3.50;;;14.80;99.90;;;;;;5061401;28;20032;-82
2023/08/07 01:29:28;;;;;;;13.75;2.80;;;14.70;99.90;;;;;;5062588;28;20123;-82
2023/08/07 01:31:55;;;;;;;12.32;2.55;;;14.70;99.90;;;;;;5062573;28;20036;-82
2023/08/07 01:34:23;;;;;;;16.27;2.63;;;14.70;99.90;;;;;;5058938;28;20051;-82
2023/08/07 01:36:50;;;;;;;16.65;3.53;;;14.70;99.90;;;;;;5063578;28;20048;-81
2023/08/07 01:39:17;;;;;;;16.50;3.15;;;14.60;99.90;;;;;;5059475;28;20040;-81
2023/08/07 01:41:43;;;;;;;16.55;4.53;;;14.70;99.90;;;;;;5043933;28;20555;-83
2023/08/07 01:44:09;;;;;;;16.63;3.05;;;14.60;99.90;;;;;;5045127;28;20175;-80
2023/08/07 01:46:34;;;;;;;17.45;3.97;;;14.70;99.90;;;;;;5045670;28;20480;-80
2023/08/07 01:49:00;;;;;;;14.10;3.03;;;14.50;99.90;;;;;;5047184;28;20322;-80
2023/08/07 01:51:26;;;;;;;10.60;2.67;;;14.60;99.90;;;;;;5045265;28;20140;-81
2023/08/07 01:53:52;;;;;;;16.35;2.78;;;14.50;99.90;;;;;;5064709;28;20052;-79
2023/08/07 01:56:18;;;;;;;17.40;2.88;;;14.50;99.90;;;;;;5045340;28;20143;-79
2023/08/07 01:58:43;;;;;;;17.35;2.97;;;14.50;99.90;;;;;;5063020;28;20123;-79
2023/08/07 02:01:09;;;;;;;12.80;3.47;;;14.40;99.90;;;;;;5061744;28;20105;-80
2023/08/07 02:03:35;;;;;;;14.55;2.97;;;14.40;99.90;;;;;;5062337;28;20124;-80
2023/08/07 02:06:01;;;;;;;19.10;3.47;;;14.30;99.90;;;;;;5064289;28;20501;-80
2023/08/07 02:08:27;;;;;;;15.20;3.08;;;14.30;99.90;;;;;;5064838;28;20442;-81
2023/08/07 02:10:53;;;;;;;17.73;2.90;;;14.20;99.90;;;;;;5045907;28;20504;-81
2023/08/07 02:13:19;;;;;;;12.18;3.25;;;14.20;99.90;;;;;;5044919;28;20040;-80
2023/08/07 02:15:44;;;;;;;13.50;3.40;;;14.20;99.90;;;;;;5044270;28;20033;-80
2023/08/07 02:18:10;;;;;;;14.10;3.20;;;14.20;99.90;;;;;;5063209;28;20035;-80
2023/08/07 02:20:35;;;;;;;15.70;2.85;;;14.20;99.90;;;;;;5045043;28;20132;-80
2023/08/07 02:23:01;;;;;;;13.90;3.55;;;14.20;99.90;;;;;;5046231;28;20475;-80
2023/08/07 02:25:27;;;;;;;11.88;3.45;;;14.20;99.90;;;;;;5063175;28;20040;-77
2023/08/07 02:27:52;;;;;;;16.73;4.00;;;14.20;99.90;;;;;;5063147;28;20062;-76
2023/08/07 02:30:18;;;;;;;14.30;3.05;;;14.20;99.90;;;;;;5062497;28;20063;-76
2023/08/07 02:32:44;;;;;;;13.90;3.22;;;14.30;99.90;;;;;;5060238;28;20037;-77
2023/08/07 02:35:11;;;;;;;10.90;2.97;;;14.30;99.90;;;;;;5062565;28;20049;-77
2023/08/07 02:37:36;;;;;;;15.32;3.45;;;14.40;99.90;;;;;;5061553;28;20054;-80
2023/08/07 02:40:02;;;;;;;15.65;3.97;;;14.40;99.90;;;;;;5060883;28;20449;-78
2023/08/07 02:42:28;;;;;;;10.85;3.67;;;14.50;99.90;;;;;;5063985;28;20037;-76
2023/08/07 02:44:54;;;;;;;9.93;3.40;;;14.50;99.90;;;;;;5061975;28;20132;-78
2023/08/07 02:47:19;;;;;;;15.80;3.70;;;14.60;99.90;;;;;;5063140;28;20056;-76
2023/08/07 02:49:45;;;;;;;14.57;3.90;;;14.70;99.90;;;;;;5063142;28;20041;-74
2023/08/07 02:52:10;;;;;;;16.38;4.05;;;14.70;99.90;;;;;;5056906;28;20057;-75
2023/08/07 02:54:36;;;;;;;20.50;4.40;;;14.80;99.90;;;;;;5062081;28;20032;-75
2023/08/07 02:57:02;;;;;;;21.00;4.85;;;14.80;99.90;;;;;;5062617;28;20098;-75
2023/08/07 02:59:28;;;;;;;22.85;4.97;;;14.90;99.90;;;;;;5063711;28;20126;-76
2023/08/07 03:01:53;;;;;;;26.92;6.10;;;14.90;99.90;;;;;;5060460;28;20075;-76
2023/08/07 03:04:19;;;;;;;27.45;4.80;;;14.90;99.90;;;;;;5063841;28;20037;-76
2023/08/07 03:06:44;;;;;;;24.73;4.97;;;14.80;99.90;;;;;;5062137;28;20043;-76
2023/08/07 03:09:10;;;;;;;17.75;3.97;;;14.80;99.90;;;;;;5062193;28;20056;-76
2023/08/07 03:11:36;;;;;;;20.02;4.35;;;14.80;99.90;;;;;;5065043;28;20049;-76
2023/08/07 03:14:03;;;;;;;16.70;4.30;;;14.80;99.90;;;;;;5067769;28;20037;-76
2023/08/07 03:16:28;;;;;;;15.90;3.72;;;14.80;99.90;;;;;;5065455;28;20506;-75
2023/08/07 03:18:54;;;;;;;21.23;4.13;;;14.80;99.90;;;;;;5069017;28;20076;-76
2023/08/07 03:21:20;;;;;;;18.27;4.28;;;14.80;99.90;;;;;;5064956;28;20036;-79
2023/08/07 03:23:45;;;;;;;21.77;4.95;;;14.80;99.90;;;;;;5067911;28;20028;-77
2023/08/07 03:26:12;;;;;;;12.93;3.70;;;14.70;99.90;;;;;;5066552;28;20127;-77
2023/08/07 03:28:39;;;;;;;12.43;3.53;;;14.80;99.90;;;;;;5067729;28;20436;-78
2023/08/07 03:31:05;;;;;;;15.80;3.90;;;14.80;99.90;;;;;;5047429;28;20044;-78
2023/08/07 03:33:31;;;;;;;23.08;4.75;;;14.70;99.90;;;;;;5064276;28;20036;-79
2023/08/07 03:35:57;;;;;;;20.77;4.38;;;14.80;99.90;;;;;;5062648;28;20051;-78
2023/08/07 03:38:22;;;;;;;20.48;4.95;;;14.70;99.90;;;;;;5065442;28;20340;-79
2023/08/07 03:40:48;;;;;;;17.63;3.72;;;14.80;99.90;;;;;;5061916;28;20123;-78
2023/08/07 03:43:14;;;;;;;13.02;3.50;;;14.80;99.90;;;;;;5065292;28;20036;-78
2023/08/07 03:45:40;;;;;;;17.17;4.10;;;14.80;99.90;;;;;;5063475;28;20045;-78
2023/08/07 03:48:06;;;;;;;15.50;3.58;;;14.80;99.90;;;;;;5065890;28;20045;-78
2023/08/07 03:50:34;;;;;;;12.25;4.03;;;14.70;99.90;;;;;;5064780;28;20061;-77
2023/08/07 03:53:01;;;;;;;14.05;3.40;;;14.80;99.90;;;;;;5049513;28;20043;-79
2023/08/07 03:55:26;;;;;;;13.50;3.50;;;14.70;99.90;;;;;;5045164;28;20453;-82
2023/08/07 03:57:52;;;;;;;10.40;2.85;;;14.70;99.90;;;;;;5049574;28;20057;-76
2023/08/07 04:00:18;;;;;;;8.20;2.63;;;14.70;99.90;;;;;;5064915;28;20131;-79
2023/08/07 04:02:44;;;;;;;15.45;3.28;;;14.70;99.90;;;;;;5061444;28;20121;-75
2023/08/07 04:05:10;;;;;;;14.10;3.75;;;14.60;99.90;;;;;;5047420;28;20116;-75
2023/08/07 04:07:36;;;;;;;15.85;4.50;;;14.60;99.90;;;;;;5045334;28;20052;-76
2023/08/07 04:10:02;;;;;;;19.90;3.63;;;14.60;99.90;;;;;;5049601;28;20527;-76
2023/08/07 04:12:27;;;;;;;23.95;4.20;;;14.50;99.90;;;;;;5044715;28;20032;-79
2023/08/07 04:14:53;;;;;;;17.95;3.90;;;14.60;99.90;;;;;;5047633;28;20045;-78
2023/08/07 04:17:19;;;;;;;18.63;4.25;;;14.60;99.90;;;;;;5066246;28;20491;-79
2023/08/07 04:19:44;;;;;;;22.08;4.13;;;14.50;99.90;;;;;;5048921;28;20043;-79
2023/08/07 04:22:10;;;;;;;19.05;3.85;;;14.50;99.90;;;;;;5046161;28;20514;-79
2023/08/07 04:24:36;;;;;;;16.92;4.47;;;14.60;99.90;;;;;;5063818;28;20044;-79
2023/08/07 04:27:02;;;;;;;19.38;4.75;;;14.60;99.90;;;;;;5064894;28;20120;-79
2023/08/07 04:29:28;;;;;;;13.75;3.60;;;14.60;99.90;;;;;;5066794;28;20396;-79
2023/08/07 04:31:54;;;;;;;20.50;4.13;;;14.50;99.90;;;;;;5060290;28;20056;-79
2023/08/07 04:34:19;;;;;;;16.48;3.85;;;14.60;99.90;;;;;;5064458;28;20078;-79
2023/08/07 04:36:45;;;;;;;21.48;4.25;;;14.50;99.90;;;;;;5066493;28;20040;-78
2023/08/07 04:39:13;;;;;;;13.93;4.00;;;14.60;99.90;;;;;;5062230;28;20029;-79
2023/08/07 04:41:39;;;;;;;16.83;4.25;;;14.60;99.90;;;;;;5064079;28;20407;-79
2023/08/07 04:44:04;;;;;;;22.70;4.15;;;14.50;99.90;;;;;;5062280;28;20036;-79
2023/08/07 04:46:30;;;;;;;13.85;4.43;;;14.50;99.90;;;;;;5064271;28;20035;-79
2023/08/07 04:48:56;;;;;;;12.23;3.35;;;14.60;99.90;;;;;;5063287;28;20064;-78
2023/08/07 04:51:22;;;;;;;15.98;4.07;;;14.60;99.90;;;;;;5045976;28;20053;-78
2023/08/07 04:53:50;;;;;;;23.00;4.82;;;14.50;99.90;;;;;;5066062;28;20382;-78
2023/08/07 04:56:17;;;;;;;16.08;4.00;;;14.50;99.90;;;;;;5062722;28;20048;-77
2023/08/07 04:58:42;;;;;;;18.27;4.55;;;14.60;99.90;;;;;;5063469;28;20552;-78
2023/08/07 05:01:08;;;;;;;20.17;4.70;;;14.60;99.90;;;;;;5064733;28;20111;-78
2023/08/07 05:03:34;;;;;;;23.98;4.80;;;14.60;99.90;;;;;;5061974;28;20045;-78
2023/08/07 05:06:01;;;;;;;19.95;4.63;;;14.70;99.90;;;;;;5060969;28;20117;-79
2023/08/07 05:08:27;;;;;;;13.50;3.45;;;14.60;99.90;;;;;;5065148;28;20079;-78
2023/08/07 05:10:53;;;;;;;13.85;4.47;;;14.60;99.90;;;;;;5062983;28;20048;-79
2023/08/07 05:13:19;;;;;;;16.75;4.28;;;14.70;99.90;;;;;;5059567;28;20040;-79
2023/08/07 05:15:47;;;;;;;19.30;4.03;;;14.70;99.90;;;;;;5062550;28;20102;-79
2023/08/07 05:18:13;;;;;;;19.55;4.45;;;14.80;99.90;;;;;;5062544;28;20043;-79
2023/08/07 05:20:39;;;;;;;16.15;3.95;;;14.80;99.90;;;;;;5062452;28;20037;-79
2023/08/07 05:23:05;;;;;;;14.85;4.10;;;14.80;99.90;;;;;;5067779;28;20499;-78
2023/08/07 05:25:30;;;;;;;14.60;3.67;;;14.70;99.90;;;;;;5062414;28;20067;-79
2023/08/07 05:27:56;;;;;;;13.18;3.40;;;14.70;99.90;;;;;;5062413;28;20480;-79
2023/08/07 05:30:22;;;;;;;20.20;3.67;;;14.80;99.90;;;;;;5044779;28;20049;-80
2023/08/07 05:32:47;;;;;;;17.85;3.47;;;14.80;99.90;;;;;;5061063;28;20400;-80
2023/08/07 05:35:13;;;;;;;14.40;3.35;;;14.80;99.90;;;;;;5045351;28;20036;-80
2023/08/07 05:37:39;;;;;;;12.88;3.72;;;14.80;99.90;;;;;;5029757;28;20052;-79
2023/08/07 05:40:05;;;;;;;18.83;3.97;;;14.80;99.90;;;;;;5046173;28;20231;-79
2023/08/07 05:42:31;;;;;;;16.90;4.22;;;14.80;99.90;;;;;;5042910;28;20048;-80
2023/08/07 05:44:58;;;;;;;21.33;3.92;;;14.90;99.90;;;;;;5044375;28;20040;-78
2023/08/07 05:47:24;;;;;;;16.27;4.50;;;14.90;99.90;;;;;;5060499;28;20079;-79
2023/08/07 05:49:50;;;;;;;21.67;4.38;;;14.90;99.90;;;;;;5044333;28;20347;-79
2023/08/07 05:52:16;;;;;;;12.18;3.38;;;14.90;99.90;;;;;;5041738;28;20326;-79
2023/08/07 05:54:42;;;;;;;15.63;3.65;;;14.90;99.90;;;;;;5062000;28;20380;-80
2023/08/07 05:57:08;;;;;;;13.70;3.67;;;15.00;99.90;;;;;;5059893;28;20044;-81
2023/08/07 05:59:34;;;;;;;12.82;3.45;;;15.00;99.90;;;;;;5057261;28;20472;-81
2023/08/07 06:02:00;;;;;;;23.23;4.20;;;15.00;99.90;;;;;;5036522;28;20056;-81
2023/08/07 06:04:25;;;;;;;12.70;3.13;;;14.90;99.90;;;;;;5026160;28;20484;-80
2023/08/07 06:06:51;;;;;;;13.57;4.03;;;15.00;99.90;;;;;;5026803;28;20040;-80
2023/08/07 06:09:17;;;;;;;14.20;3.28;;;15.00;99.90;;;;;;5060062;28;20676;-81
2023/08/07 06:11:43;;;;;;;13.52;3.53;;;15.00;99.90;;;;;;5042809;28;20052;-82
2023/08/07 06:14:09;;;;;;;11.13;3.85;;;15.00;99.90;;;;;;5039524;28;20044;-81
2023/08/07 06:16:34;;;;;;;17.23;3.30;;;15.00;99.90;;;;;;5043553;28;20503;-81
2023/08/07 06:19:00;;;;;;;13.48;2.92;;;15.00;99.90;;;;;;5064883;28;20090;-81
2023/08/07 06:21:28;;;;;;;13.20;3.67;;;15.00;99.90;;;;;;5048118;28;20052;-81
2023/08/07 06:23:54;;;;;;;14.88;3.25;;;15.10;99.90;;;;;;5030543;28;20067;-81
2023/08/07 06:26:19;;;;;;;14.52;3.20;;;15.10;99.90;;;;;;5066769;28;20060;-83
2023/08/07 06:28:45;;;;;;;15.02;3.55;;;15.20;99.90;;;;;;5046156;28;20043;-82
2023/08/07 06:31:12;;;;;;;14.80;3.63;;;15.30;99.90;;;;;;5046946;28;20056;-81
2023/08/07 06:33:38;;;;;;;7.43;2.42;;;15.40;99.90;;;;;;5043513;28;20032;-82
2023/08/07 06:36:04;;;;;;;16.65;2.97;;;15.50;99.90;;;;;;5041756;28;20123;-82
2023/08/07 06:38:31;;;;;;;15.52;3.33;;;15.60;99.90;;;;;;5041448;28;20102;-82
2023/08/07 06:40:57;;;;;;;10.90;2.80;;;15.60;99.90;;;;;;5043921;28;20052;-82
2023/08/07 06:43:22;;;;;;;8.70;2.50;;;15.60;99.90;;;;;;5056135;28;20046;-82
2023/08/07 06:45:52;;;;;;;9.02;2.47;;;15.60;99.90;;;;;;5061031;28;20110;-81
2023/08/07 06:48:18;;;;;;;11.93;2.58;;;15.60;99.90;;;;;;5046670;28;20483;-83
2023/08/07 06:50:44;;;;;;;8.20;2.60;;;15.70;99.90;;;;;;5064453;28;20048;-84
2023/08/07 06:53:10;;;;;;;7.57;2.40;;;15.60;99.90;;;;;;5064798;28;20438;-83
2023/08/07 06:55:36;;;;;;;8.32;2.60;;;15.30;99.90;;;;;;5032090;28;20045;-83
2023/08/07 06:58:02;;;;;;;12.10;3.22;;;15.10;99.90;;;;;;5047603;28;20384;-82
2023/08/07 07:00:27;;;;;;;19.05;4.03;;;14.90;99.90;;;;;;5065110;28;20102;-81
2023/08/07 07:02:53;;;;;;;13.65;3.30;;;14.80;99.90;;;;;;5062133;28;20456;-83
2023/08/07 07:05:19;;;;;;;12.73;3.22;;;14.70;99.90;;;;;;5064571;28;20048;-84
2023/08/07 07:07:44;;;;;;;15.32;3.38;;;14.80;99.90;;;;;;5067427;28;20040;-82
2023/08/07 07:10:10;;;;;;;13.07;3.40;;;14.90;99.90;;;;;;5065791;28;20406;-82
2023/08/07 07:12:36;;;;;;;11.60;3.47;;;14.90;99.90;;;;;;5066812;28;20127;-82
2023/08/07 07:15:02;;;;;;;11.45;2.60;;;15.00;99.90;;;;;;5068998;28;20063;-82
2023/08/07 07:17:28;;;;;;;19.08;3.45;;;15.20;99.90;;;;;;5068629;28;20138;-77
2023/08/07 07:19:54;;;;;;;10.68;3.40;;;15.60;99.90;;;;;;5061678;28;20127;-83
2023/08/07 07:22:19;;;;;;;8.65;2.83;;;15.90;99.90;;;;;;5063299;28;20215;-84
2023/08/07 07:24:45;;;;;;;10.57;2.95;;;16.00;99.90;;;;;;5066882;28;20493;-85
2023/08/07 07:27:11;;;;;;;9.85;2.90;;;16.00;99.90;;;;;;5048856;28;20062;-83
2023/08/07 07:29:36;;;;;;;9.90;3.03;;;16.10;99.90;;;;;;5063921;28;20415;-83
2023/08/07 07:32:02;;;;;;;14.45;2.85;;;16.20;99.90;;;;;;5062397;28;20469;-84
2023/08/07 07:34:28;;;;;;;6.80;2.53;;;16.30;99.90;;;;;;5051836;28;20087;-85
2023/08/07 07:36:54;;;;;;;7.30;2.60;;;16.00;99.90;;;;;;5044860;28;20075;-84
2023/08/07 07:39:20;;;;;;;7.70;2.65;;;15.80;99.90;;;;;;5044152;28;20499;-83
2023/08/07 07:41:46;;;;;;;10.05;2.65;;;15.60;99.90;;;;;;5057430;28;20048;-84
2023/08/07 07:44:12;;;;;;;10.68;2.45;;;15.40;99.90;;;;;;5057662;28;20049;-83
2023/08/07 07:46:38;;;;;;;9.35;2.40;;;15.40;99.90;;;;;;5037256;28;20986;-83
2023/08/07 07:49:04;;;;;;;9.82;2.97;;;15.30;99.90;;;;;;5061008;28;20041;-82
2023/08/07 07:51:31;;;;;;;13.85;3.33;;;15.40;99.90;;;;;;5064678;28;20122;-83
2023/08/07 07:53:58;;;;;;;9.50;2.72;;;15.40;99.90;;;;;;5046281;28;20510;-82
2023/08/07 07:56:23;;;;;;;11.43;2.78;;;15.40;99.90;;;;;;5048006;28;20334;-82
2023/08/07 07:58:49;;;;;;;14.68;3.58;;;15.30;99.90;;;;;;5046521;28;20344;-84
2023/08/07 08:01:15;;;;;;;11.68;3.75;;;15.30;99.90;;;;;;5064548;28;20139;-82
2023/08/07 08:03:40;;;;;;;11.10;3.28;;;15.40;99.90;;;;;;5047343;28;20037;-82
2023/08/07 08:06:06;;;;;;;12.85;3.25;;;15.70;99.90;;;;;;5060853;28;20048;-84
2023/08/07 08:08:32;;;;;;;10.13;2.72;;;15.90;99.90;;;;;;5045046;28;20051;-81
2023/08/07 08:10:57;;;;;;;11.77;2.88;;;16.10;99.90;;;;;;5062568;28;20040;-81
2023/08/07 08:13:25;;;;;;;11.30;2.67;;;16.30;99.90;;;;;;5046174;28;20115;-86
2023/08/07 08:15:51;;;;;;;10.93;3.10;;;16.50;99.90;;;;;;5039210;28;20167;-83
2023/08/07 08:18:17;;;;;;;7.57;2.35;;;16.70;99.90;;;;;;5045226;28;20060;-83
2023/08/07 08:20:42;;;;;;;12.30;3.03;;;16.90;99.90;;;;;;5063375;28;20484;-84
2023/08/07 08:23:08;;;;;;;9.15;2.85;;;17.00;99.90;;;;;;5060741;28;20041;-84
2023/08/07 08:25:34;;;;;;;12.65;2.92;;;17.10;99.90;;;;;;5063433;28;20101;-84
2023/08/07 08:28:00;;;;;;;7.05;2.33;;;17.20;99.90;;;;;;5047169;28;20530;-83
2023/08/07 08:30:26;;;;;;;12.30;3.15;;;17.20;99.90;;;;;;5028957;28;20493;-84
2023/08/07 08:32:52;;;;;;;9.27;2.40;;;17.20;99.90;;;;;;5055636;28;20251;-83
2023/08/07 08:35:17;;;;;;;10.82;2.97;;;17.20;99.90;;;;;;5060157;28;20484;-84
2023/08/07 08:37:43;;;;;;;7.55;2.45;;;17.20;99.90;;;;;;5041399;28;20543;-83
2023/08/07 08:40:12;;;;;;;12.43;3.03;;;17.20;99.90;;;;;;5045634;28;20048;-81
2023/08/07 08:42:40;;;;;;;10.55;2.78;;;17.30;99.90;;;;;;5040819;28;20041;-83
2023/08/07 08:45:10;;;;;;;14.65;2.78;;;17.40;99.90;;;;;;5036888;28;20045;-84
2023/08/07 08:47:36;;;;;;;10.13;2.80;;;17.50;99.90;;;;;;5059999;28;20834;-85
2023/08/07 08:50:06;;;;;;;9.20;2.25;;;17.50;99.90;;;;;;5042104;28;20052;-85
2023/08/07 08:52:32;;;;;;;15.63;2.50;;;17.40;99.90;;;;;;5057569;28;20211;-84
2023/08/07 08:54:58;;;;;;;10.13;2.58;;;17.50;99.90;;;;;;5042594;28;20029;-85
2023/08/07 08:57:28;;;;;;;8.80;2.38;;;17.50;99.90;;;;;;5039558;28;20446;-85
2023/08/07 08:59:56;;;;;;;11.93;2.75;;;17.60;99.90;;;;;;5042003;28;20364;-83
2023/08/07 09:02:22;;;;;;;8.20;2.20;;;17.70;99.90;;;;;;5027659;28;20833;-87
2023/08/07 09:04:48;;;;;;;18.15;3.42;;;17.90;99.90;;;;;;5025385;28;20139;-87
2023/08/07 09:07:15;;;;;;;13.75;3.38;;;18.10;99.90;;;;;;5041032;28;20053;-86
2023/08/07 09:09:42;;;;;;;10.23;3.13;;;18.00;99.90;;;;;;5049732;28;20063;-86
2023/08/07 09:12:20;;;;;;;13.98;3.28;;;17.80;99.90;;;;;;5062783;28;20431;-85
2023/08/07 09:14:52;;;;;;;9.57;2.92;;;17.50;99.90;;;;;;5059748;28;20040;-85
2023/08/07 09:17:19;;;;;;;11.80;2.90;;;17.50;99.90;;;;;;5043122;28;20127;-85
2023/08/07 09:19:45;;;;;;;8.93;2.67;;;17.50;99.90;;;;;;5042357;28;20078;-84
2023/08/07 09:22:11;;;;;;;10.57;2.70;;;17.30;99.90;;;;;;5040543;28;20075;-83
2023/08/07 09:24:36;;;;;;;10.20;2.75;;;17.20;99.90;;;;;;5059519;28;20102;-85
2023/08/07 09:27:02;;;;;;;10.57;2.70;;;17.40;99.90;;;;;;5058679;28;20043;-85
2023/08/07 09:29:28;;;;;;;9.88;2.20;;;17.80;99.90;;;;;;5057959;28;20063;-81
2023/08/07 09:31:56;;;;;;;9.02;2.90;;;17.90;99.90;;;;;;5060772;28;20056;-81
2023/08/07 09:34:22;;;;;;;12.43;3.22;;;17.90;99.90;;;;;;5057985;28;20175;-82
2023/08/07 09:36:48;;;;;;;10.45;2.80;;;17.70;99.90;;;;;;5040022;28;20139;-82
2023/08/07 09:39:14;;;;;;;12.40;3.13;;;17.50;99.90;;;;;;5058971;28;20033;-83
2023/08/07 09:41:40;;;;;;;7.13;2.67;;;17.30;99.90;;;;;;5041781;28;20591;-83
2023/08/07 09:44:10;;;;;;;9.15;2.58;;;17.20;99.90;;;;;;5061151;28;20045;-83
2023/08/07 09:46:45;;;;;;;8.10;2.55;;;17.10;99.90;;;;;;5043213;28;20102;-83
2023/08/07 09:49:11;;;;;;;8.02;2.17;;;17.00;99.90;;;;;;5043748;28;20091;-83
2023/08/07 09:51:50;;;;;;;10.75;2.60;;;17.00;99.90;;;;;;5040318;28;20084;-83
2023/08/07 09:54:15;;;;;;;7.03;2.33;;;17.20;99.90;;;;;;5037533;28;20481;-82
2023/08/07 09:56:41;;;;;;;9.65;2.35;;;17.60;99.90;;;;;;5036852;28;20049;-84
2023/08/07 09:59:08;;;;;;;11.88;3.08;;;17.90;99.90;;;;;;5033663;28;20044;-83
2023/08/07 10:01:38;;;;;;;9.90;2.60;;;18.20;99.90;;;;;;5041245;28;20477;-81
2023/08/07 10:04:05;;;;;;;7.72;2.40;;;18.30;99.90;;;;;;5036302;28;20037;-82
2023/08/07 10:06:31;;;;;;;10.23;2.15;;;18.20;99.90;;;;;;5053752;28;20053;-84
2023/08/07 10:08:59;;;;;;;7.57;2.40;;;18.20;99.90;;;;;;5042871;28;20079;-84
2023/08/07 10:11:25;;;;;;;7.70;2.53;;;18.30;99.90;;;;;;5038274;28;20174;-83
2023/08/07 10:13:51;;;;;;;9.43;2.47;;;18.20;99.90;;;;;;5038179;28;20068;-83
2023/08/07 10:16:17;;;;;;;9.13;2.70;;;18.00;99.90;;;;;;5041896;28;20435;-81
2023/08/07 10:18:43;;;;;;;10.93;2.42;;;18.10;99.90;;;;;;5047364;28;20518;-83
2023/08/07 10:21:08;;;;;;;8.05;2.17;;;18.40;99.90;;;;;;5043006;28;20041;-84
2023/08/07 10:23:36;;;;;;;12.00;2.33;;;18.60;99.90;;;;;;5043556;28;20443;-84
2023/08/07 10:26:05;;;;;;;10.50;3.05;;;18.70;99.90;;;;;;5039130;28;20048;-85
2023/08/07 10:28:32;;;;;;;8.10;2.50;;;18.70;99.90;;;;;;5038862;28;20496;-84
2023/08/07 10:30:59;;;;;;;8.88;2.33;;;18.70;99.90;;;;;;5034597;28;20056;-84
2023/08/07 10:33:25;;;;;;;8.63;2.30;;;18.70;99.90;;;;;;5036131;28;20029;-82
2023/08/07 10:35:52;;;;;;;9.00;2.70;;;18.50;99.90;;;;;;5036533;28;20065;-82
2023/08/07 10:38:20;;;;;;;10.77;2.35;;;18.30;99.90;;;;;;5040178;28;20160;-82
2023/08/07 10:41:12;;;;;;;8.55;2.22;;;18.30;99.90;;;;;;5033959;28;20041;-84
2023/08/07 10:43:43;;;;;;;9.90;2.42;;;18.30;99.90;;;;;;5037886;28;20061;-84
2023/08/07 10:46:15;;;;;;;7.60;2.55;;;18.40;99.90;;;;;;5041610;28;20068;-82
2023/08/07 10:48:49;;;;;;;7.68;2.65;;;18.50;99.90;;;;;;5040719;28;20335;-83
2023/08/07 10:51:16;;;;;;;8.77;2.35;;;18.50;99.90;;;;;;5044576;28;20048;-83
2023/08/07 10:53:45;;;;;;;11.48;2.70;;;18.50;99.90;;;;;;5040765;28;20099;-84
2023/08/07 10:56:16;;;;;;;11.80;2.35;;;18.40;99.90;;;;;;5038067;28;20041;-82
2023/08/07 10:58:42;;;;;;;9.90;3.25;;;18.50;99.90;;;;;;5038732;28;20072;-82
2023/08/07 11:01:26;;;;;;;9.60;2.40;;;18.50;99.90;;;;;;5039081;28;20098;-84
2023/08/07 11:03:57;;;;;;;7.07;1.95;;;18.40;99.90;;;;;;5038702;28;20049;-83
2023/08/07 11:06:36;;;;;;;9.60;2.28;;;18.20;99.90;;;;;;5037996;28;20137;-83
2023/08/07 11:09:04;;;;;;;8.07;2.53;;;18.10;99.90;;;;;;5038122;28;20045;-78
2023/08/07 11:11:40;;;;;;;10.60;2.45;;;18.10;99.90;;;;;;5042649;28;20041;-84
2023/08/07 11:14:11;;;;;;;9.80;2.45;;;18.30;99.90;;;;;;5038966;28;20055;-84
2023/08/07 11:16:37;;;;;;;8.57;2.88;;;18.30;99.90;;;;;;5040825;28;20085;-84
2023/08/07 11:19:04;;;;;;;10.80;2.53;;;18.20;99.90;;;;;;5002407;28;20040;-86
2023/08/07 11:21:32;;;;;;;9.40;2.75;;;18.30;99.90;;;;;;5042386;28;20512;-85
2023/08/07 11:23:58;;;;;;;7.53;2.60;;;18.60;99.90;;;;;;5042736;28;20037;-83
2023/08/07 11:26:25;;;;;;;9.85;3.10;;;18.60;99.90;;;;;;5042456;28;20041;-83
2023/08/07 11:28:51;;;;;;;13.70;3.22;;;18.60;99.90;;;;;;5043797;28;20494;-86
2023/08/07 11:31:18;;;;;;;7.25;2.58;;;18.30;99.90;;;;;;5034686;28;20052;-80
2023/08/07 11:33:45;;;;;;;9.15;2.72;;;18.10;99.90;;;;;;5040936;28;20080;-81
2023/08/07 11:36:14;;;;;;;6.38;2.60;;;17.80;99.90;;;;;;5042862;28;20376;-75
2023/08/07 11:38:44;;;;;;;7.80;2.78;;;17.60;99.90;;;;;;5043056;28;20057;-79
2023/08/07 11:41:14;;;;;;;12.77;3.28;;;17.30;99.90;;;;;;5046603;28;20215;-78
2023/08/07 11:43:42;;;;;;;12.15;3.60;;;17.20;99.90;;;;;;5044347;28;20094;-80
2023/08/07 11:46:11;;;;;;;9.40;3.17;;;17.10;99.90;;;;;;5046390;28;20044;-79
2023/08/07 11:48:39;;;;;;;8.35;2.42;;;17.10;99.90;;;;;;5057495;28;20044;-80
2023/08/07 11:51:06;;;;;;;7.88;2.28;;;17.10;99.90;;;;;;5046840;28;20053;-82
2023/08/07 11:53:37;;;;;;;8.43;2.20;;;17.30;99.90;;;;;;5044120;28;20404;-84
2023/08/07 11:56:04;;;;;;;7.22;2.33;;;17.50;99.90;;;;;;5040767;28;20057;-84
2023/08/07 11:58:39;;;;;;;5.95;2.10;;;17.70;99.90;;;;;;5022474;28;20115;-84
2023/08/07 12:01:15;;;;;;;6.40;2.63;;;17.80;99.90;;;;;;5041967;28;20041;-84
2023/08/07 12:03:50;;;;;;;5.85;2.03;;;17.80;99.90;;;;;;5042206;28;20068;-84
2023/08/07 12:06:16;;;;;;;8.00;2.80;;;17.80;99.90;;;;;;5043018;28;20084;-83
2023/08/07 12:08:42;;;;;;;10.05;3.10;;;17.70;99.90;;;;;;5044145;28;20064;-84
2023/08/07 12:11:12;;;;;;;7.22;2.58;;;17.70;99.90;;;;;;5042062;28;20060;-84
2023/08/07 12:13:42;;;;;;;7.43;2.20;;;17.70;99.90;;;;;;5039259;28;20178;-86
2023/08/07 12:16:09;;;;;;;8.68;2.42;;;17.70;99.90;;;;;;5045471;28;20048;-84
2023/08/07 12:18:37;;;;;;;9.23;2.85;;;17.90;99.90;;;;;;5044455;28;20056;-84
2023/08/07 12:21:06;;;;;;;9.57;2.55;;;18.10;99.90;;;;;;5049705;28;20049;-85
2023/08/07 12:23:35;;;;;;;7.85;1.85;;;18.20;99.90;;;;;;5039300;28;20060;-85
2023/08/07 12:26:02;;;;;;;9.57;2.63;;;18.10;99.90;;;;;;5046177;28;20221;-85
2023/08/07 12:28:27;;;;;;;7.30;2.38;;;18.10;99.90;;;;;;5043629;28;20459;-85
2023/08/07 12:30:53;;;;;;;7.80;2.50;;;18.30;99.90;;;;;;5036656;28;20128;-86
2023/08/07 12:33:19;;;;;;;4.82;2.05;;;18.60;99.90;;;;;;5042278;28;20041;-84
2023/08/07 12:35:46;;;;;;;6.90;2.63;;;19.00;99.90;;;;;;5043662;28;20534;-84
2023/08/07 12:38:13;;;;;;;7.50;2.38;;;19.10;99.90;;;;;;5040273;28;20076;-84